Lumberton, North Carolina
Current Conditions -  °F | °C
As of 4:54 PM on Friday 19 Dec 2014 (Local Time) from KLBT Reporting Station
Clear Clear  
Wind Chill: 55°   Ceiling: Unl
Heat Index: 55°   Visibility: 10mi
Dew Point: 29°   Wind: 0mph
Humidity: 37%   Direction: NA
Pressure: 30.12"   Gusts: NA
Location:  34.62°N, 79.01°W
Report Text: KLBT 192154Z AUTO 00000KT 10SM CLR 13/M02 A3012 RMK AO2 SLP201 T01281017
Loading
Personal Weather Stations






























Interactive Weather Map New forecast layout! Learn more

10-Day Weather Forecast

Advertisements
Track Severe Weather on mobile